Time;durP1;ratioP1;P1;durP2;ratioP2;P2;SDS_P1;SDS_P2;PMS_P1;PMS_P2;Temp;Humidity;BMP_temperature;BMP_pressure;BME280_temperature;BME280_humidity;BME280_pressure;Samples;Min_cycle;Max_cycle;Signal;HPM_P1;HPM_P2
2022/10/08 00:01:21;;;;;;;6.75;3.70;;;10.50;99.90;;;;;;6231756;23;20004;-75
2022/10/08 00:03:50;;;;;;;4.97;3.35;;;10.40;99.90;;;;;;6234753;23;20008;-75
2022/10/08 00:06:19;;;;;;;5.38;3.63;;;10.30;99.90;;;;;;6234330;23;20023;-75
2022/10/08 00:08:50;;;;;;;5.88;4.20;;;10.40;99.90;;;;;;6232523;23;20008;-68
2022/10/08 00:11:20;;;;;;;5.60;5.00;;;10.50;99.90;;;;;;6235837;22;20008;-68
2022/10/08 00:13:47;;;;;;;5.00;4.50;;;10.50;99.90;;;;;;6231405;23;20497;-68
2022/10/08 00:16:16;;;;;;;5.10;4.03;;;10.50;99.90;;;;;;6233029;22;20042;-68
2022/10/08 00:18:43;;;;;;;6.72;3.20;;;10.50;99.90;;;;;;6231696;23;20078;-68
2022/10/08 00:21:24;;;;;;;3.53;3.05;;;10.50;99.90;;;;;;6234812;23;20075;-68
2022/10/08 00:23:51;;;;;;;4.10;3.40;;;10.50;99.90;;;;;;6236141;23;20074;-68
2022/10/08 00:26:22;;;;;;;4.25;3.85;;;10.40;99.90;;;;;;6233059;23;20009;-68
2022/10/08 00:28:48;;;;;;;4.75;3.25;;;10.30;99.90;;;;;;6232741;23;20004;-76
2022/10/08 00:31:21;;;;;;;4.32;3.08;;;10.30;99.90;;;;;;6231024;23;20031;-76
2022/10/08 00:33:55;;;;;;;3.55;3.25;;;10.30;99.90;;;;;;6234163;23;20012;-76
2022/10/08 00:36:24;;;;;;;3.42;3.13;;;10.20;99.90;;;;;;6232291;23;20020;-76
2022/10/08 00:39:04;;;;;;;4.18;3.20;;;10.10;99.90;;;;;;6231706;23;20005;-76
2022/10/08 00:41:33;;;;;;;4.40;3.20;;;10.10;99.90;;;;;;6231065;23;20441;-76
2022/10/08 00:44:03;;;;;;;3.33;3.03;;;10.00;99.90;;;;;;6235157;23;20005;-76
2022/10/08 00:46:47;;;;;;;4.47;3.50;;;10.10;99.90;;;;;;6231490;23;20020;-76
2022/10/08 00:49:17;;;;;;;3.80;3.50;;;10.00;99.90;;;;;;6234844;22;20470;-76
2022/10/08 00:51:48;;;;;;;3.90;3.50;;;10.00;99.90;;;;;;6234409;23;20522;-76
2022/10/08 00:54:15;;;;;;;4.57;3.85;;;10.00;99.90;;;;;;6232800;23;20476;-76
2022/10/08 00:56:42;;;;;;;5.85;3.42;;;10.00;99.90;;;;;;6234266;23;20000;-76
2022/10/08 00:59:09;;;;;;;5.78;3.30;;;10.00;99.90;;;;;;6234952;23;20027;-76
2022/10/08 01:01:35;;;;;;;6.75;3.47;;;10.00;99.90;;;;;;6234384;23;20004;-76
2022/10/08 01:04:04;;;;;;;4.68;3.58;;;10.00;99.90;;;;;;6232662;23;20011;-76
2022/10/08 01:06:41;;;;;;;6.38;3.90;;;10.00;99.90;;;;;;6232232;23;20008;-76
2022/10/08 01:09:14;;;;;;;5.45;3.13;;;10.00;99.90;;;;;;6234099;23;20866;-75
2022/10/08 01:12:17;;;;;;;3.53;2.80;;;10.00;99.90;;;;;;6232695;22;20004;-76
2022/10/08 01:15:27;;;;;;;2.95;2.53;;;10.00;99.90;;;;;;6234262;22;20785;-76
2022/10/08 01:18:37;;;;;;;4.32;3.67;;;9.90;99.90;;;;;;6230645;22;20087;-75
2022/10/08 01:21:18;;;;;;;3.30;2.55;;;10.00;99.90;;;;;;6139986;23;20032;-75
2022/10/08 01:23:43;;;;;;;2.95;2.65;;;10.00;99.90;;;;;;6229906;22;20035;-68
2022/10/08 01:26:41;;;;;;;3.40;2.22;;;9.80;99.90;;;;;;6232043;23;20028;-68
2022/10/08 01:29:09;;;;;;;2.08;1.92;;;9.70;99.90;;;;;;6233335;23;20014;-68
2022/10/08 01:31:42;;;;;;;2.55;2.30;;;9.70;99.90;;;;;;6231686;23;20371;-68
2022/10/08 01:34:38;;;;;;;2.78;2.35;;;9.70;99.90;;;;;;6234243;23;20004;-68
2022/10/08 01:37:08;;;;;;;2.97;2.10;;;9.60;99.90;;;;;;6233219;22;20384;-68
2022/10/08 01:39:37;;;;;;;2.58;1.90;;;9.60;99.90;;;;;;6227305;23;20036;-68
2022/10/08 01:42:06;;;;;;;2.92;2.28;;;9.60;99.90;;;;;;6230462;23;20004;-68
2022/10/08 01:44:45;;;;;;;3.58;2.72;;;9.60;99.90;;;;;;6233930;23;20016;-75
2022/10/08 01:47:15;;;;;;;3.33;2.88;;;9.60;99.90;;;;;;6233793;23;20038;-75
2022/10/08 01:49:46;;;;;;;4.63;3.08;;;9.60;99.90;;;;;;6234086;23;20366;-76
2022/10/08 01:52:20;;;;;;;4.15;2.75;;;9.60;99.90;;;;;;6236496;23;20392;-75
2022/10/08 01:54:48;;;;;;;2.00;1.90;;;9.60;99.90;;;;;;6234533;23;20000;-75
2022/10/08 01:57:13;;;;;;;2.15;1.95;;;9.50;99.90;;;;;;6235629;23;20015;-75
2022/10/08 01:59:45;;;;;;;2.05;1.85;;;9.40;99.90;;;;;;6233796;23;20000;-76
2022/10/08 02:02:23;;;;;;;4.35;2.50;;;9.30;99.90;;;;;;6235418;23;20087;-76
2022/10/08 02:04:50;;;;;;;2.90;2.35;;;9.30;99.90;;;;;;6233748;23;20532;-76
2022/10/08 02:07:17;;;;;;;2.17;2.05;;;9.30;99.90;;;;;;6236566;23;20020;-76
2022/10/08 02:09:50;;;;;;;3.20;2.20;;;9.30;99.90;;;;;;6234433;22;20007;-76
2022/10/08 02:12:16;;;;;;;4.47;2.38;;;9.30;99.90;;;;;;6231480;23;20011;-77
2022/10/08 02:14:46;;;;;;;2.80;2.50;;;9.30;99.90;;;;;;6231449;23;19996;-77
2022/10/08 02:17:36;;;;;;;2.80;2.15;;;9.30;99.90;;;;;;6232922;23;20011;-76
2022/10/08 02:20:27;;;;;;;4.63;2.50;;;9.40;99.90;;;;;;6233524;23;19996;-76
2022/10/08 02:23:05;;;;;;;2.65;2.45;;;9.30;99.90;;;;;;6232880;23;20059;-76
2022/10/08 02:25:47;;;;;;;2.63;2.38;;;9.30;99.90;;;;;;6231772;23;20012;-76
2022/10/08 02:28:19;;;;;;;3.90;2.70;;;9.30;99.90;;;;;;6234437;23;20441;-76
2022/10/08 02:30:51;;;;;;;3.47;2.50;;;9.30;99.90;;;;;;6229618;23;20000;-76
2022/10/08 02:33:25;;;;;;;2.80;2.60;;;9.30;99.90;;;;;;6232635;23;20007;-76
2022/10/08 02:35:57;;;;;;;3.50;3.20;;;9.20;99.90;;;;;;6229993;23;20012;-76
2022/10/08 02:38:32;;;;;;;3.13;2.83;;;9.10;99.90;;;;;;6234398;23;20038;-76
2022/10/08 02:41:02;;;;;;;5.25;3.33;;;9.10;99.90;;;;;;6233969;23;20412;-76
2022/10/08 02:43:31;;;;;;;5.72;3.45;;;9.00;99.90;;;;;;6236390;23;20039;-76
2022/10/08 02:46:21;;;;;;;3.65;2.97;;;8.90;99.90;;;;;;6232963;23;20008;-76
2022/10/08 02:49:06;;;;;;;4.03;3.63;;;8.80;99.90;;;;;;6232657;22;20090;-76
2022/10/08 02:51:38;;;;;;;5.00;3.25;;;8.80;99.90;;;;;;6235941;23;19992;-76
2022/10/08 02:54:06;;;;;;;4.38;3.35;;;8.70;99.90;;;;;;6231968;23;20091;-77
2022/10/08 02:56:54;;;;;;;5.85;3.75;;;8.70;99.90;;;;;;6235378;23;20008;-77
2022/10/08 02:59:20;;;;;;;6.30;3.67;;;8.60;99.90;;;;;;6234663;22;20012;-77
2022/10/08 03:02:03;;;;;;;6.03;4.03;;;8.70;99.90;;;;;;6232991;23;20265;-77
2022/10/08 03:04:39;;;;;;;5.45;4.03;;;8.80;99.90;;;;;;6234018;23;20429;-77
2022/10/08 03:07:06;;;;;;;8.57;5.35;;;8.90;99.90;;;;;;6235185;23;20011;-76
2022/10/08 03:09:36;;;;;;;9.40;6.30;;;8.90;99.90;;;;;;6233977;23;20054;-76
2022/10/08 03:12:02;;;;;;;11.48;6.18;;;8.90;99.90;;;;;;6233641;23;20008;-76
2022/10/08 03:14:33;;;;;;;9.68;5.85;;;8.90;99.90;;;;;;6235215;23;20000;-76
2022/10/08 03:16:59;;;;;;;17.23;6.20;;;9.00;99.90;;;;;;6233916;23;20355;-76
2022/10/08 03:19:24;;;;;;;11.40;5.90;;;9.00;99.90;;;;;;6230770;23;20106;-76
2022/10/08 03:21:53;;;;;;;13.80;6.70;;;9.00;99.90;;;;;;6231825;23;20075;-76
2022/10/08 03:24:19;;;;;;;33.22;7.78;;;8.90;99.90;;;;;;6232628;23;20330;-76
2022/10/08 03:26:45;;;;;;;25.33;6.70;;;9.00;99.90;;;;;;6231107;23;20046;-77
2022/10/08 03:29:11;;;;;;;17.00;6.93;;;9.00;99.90;;;;;;6231802;23;20000;-77
2022/10/08 03:31:36;;;;;;;11.60;6.40;;;9.00;99.90;;;;;;6230498;23;20005;-77
2022/10/08 03:34:02;;;;;;;12.23;6.00;;;9.00;99.90;;;;;;6231722;23;20008;-76
2022/10/08 03:36:28;;;;;;;27.25;5.57;;;9.10;99.90;;;;;;6232850;23;20020;-76
2022/10/08 03:38:54;;;;;;;6.50;5.63;;;9.10;99.90;;;;;;6234809;23;20058;-76
2022/10/08 03:41:19;;;;;;;6.95;5.38;;;8.90;99.90;;;;;;6234404;23;20004;-76
2022/10/08 03:43:45;;;;;;;6.60;4.97;;;8.80;99.90;;;;;;6234562;23;19996;-76
2022/10/08 03:46:13;;;;;;;11.45;5.90;;;8.70;99.90;;;;;;6234076;23;20027;-76
2022/10/08 03:48:39;;;;;;;27.88;5.40;;;8.70;99.90;;;;;;6230836;23;20023;-76
2022/10/08 03:51:08;;;;;;;17.85;5.35;;;8.70;99.90;;;;;;6233293;23;20000;-77
2022/10/08 03:53:38;;;;;;;6.95;4.68;;;8.60;99.90;;;;;;6234017;23;20011;-77
2022/10/08 03:56:07;;;;;;;5.80;4.95;;;8.50;99.90;;;;;;6232577;23;20008;-76
2022/10/08 03:58:34;;;;;;;5.72;4.90;;;8.50;99.90;;;;;;6233901;23;20004;-68
2022/10/08 04:01:02;;;;;;;6.38;5.10;;;8.60;99.90;;;;;;6231915;22;20007;-68
2022/10/08 04:03:29;;;;;;;6.22;5.13;;;8.50;99.90;;;;;;6232613;23;20010;-68
2022/10/08 04:05:56;;;;;;;6.55;4.80;;;8.60;99.90;;;;;;6229454;23;20010;-68
2022/10/08 04:08:22;;;;;;;7.93;5.57;;;8.60;99.90;;;;;;6232079;22;20010;-68
2022/10/08 04:10:47;;;;;;;7.20;5.53;;;8.60;99.90;;;;;;6231362;22;20079;-68
2022/10/08 04:13:14;;;;;;;13.52;7.25;;;8.60;99.90;;;;;;6232044;23;20480;-68
2022/10/08 04:15:40;;;;;;;40.13;7.78;;;8.60;99.90;;;;;;6229215;23;20094;-68
2022/10/08 04:18:06;;;;;;;20.98;6.63;;;8.70;99.90;;;;;;6231345;23;20391;-68
2022/10/08 04:20:32;;;;;;;27.92;6.57;;;8.70;99.90;;;;;;6232082;23;20035;-68
2022/10/08 04:22:58;;;;;;;16.27;6.63;;;8.70;99.90;;;;;;6232081;23;20007;-68
2022/10/08 04:25:23;;;;;;;20.63;5.47;;;8.70;99.90;;;;;;6233037;23;20012;-68
2022/10/08 04:27:49;;;;;;;12.20;4.85;;;8.70;99.90;;;;;;6229037;23;20020;-68
2022/10/08 04:30:17;;;;;;;22.80;5.18;;;8.60;99.90;;;;;;6231200;23;20011;-68
2022/10/08 04:32:43;;;;;;;7.60;4.82;;;8.50;99.90;;;;;;6232532;23;20067;-68
2022/10/08 04:35:09;;;;;;;13.15;4.88;;;8.50;99.90;;;;;;6231613;23;20549;-68
2022/10/08 04:37:34;;;;;;;18.92;4.97;;;8.50;99.90;;;;;;6230186;22;20097;-68
2022/10/08 04:40:00;;;;;;;22.55;4.75;;;8.50;99.90;;;;;;6232501;23;20054;-68
2022/10/08 04:42:25;;;;;;;16.85;4.75;;;8.50;99.90;;;;;;6229641;23;20011;-68
2022/10/08 04:44:51;;;;;;;6.97;4.50;;;8.50;99.90;;;;;;6229789;23;20464;-68
2022/10/08 04:47:17;;;;;;;10.90;4.88;;;8.50;99.90;;;;;;6229576;23;20502;-69
2022/10/08 04:49:42;;;;;;;8.30;4.80;;;8.50;99.90;;;;;;6230171;23;20586;-68
2022/10/08 04:52:08;;;;;;;9.70;5.30;;;8.50;99.90;;;;;;6232999;23;20042;-68
2022/10/08 04:54:35;;;;;;;13.30;5.60;;;8.50;99.90;;;;;;6233326;23;20491;-68
2022/10/08 04:57:00;;;;;;;8.27;5.95;;;8.50;99.90;;;;;;6232780;23;20031;-69
2022/10/08 04:59:26;;;;;;;7.65;5.90;;;8.50;99.90;;;;;;6235925;23;20000;-69
2022/10/08 05:01:55;;;;;;;10.63;6.20;;;8.50;99.90;;;;;;6233661;23;20004;-68
2022/10/08 05:04:21;;;;;;;9.95;6.43;;;8.50;99.90;;;;;;6232397;23;20058;-69
2022/10/08 05:06:47;;;;;;;13.00;7.68;;;8.50;99.90;;;;;;6235053;23;20012;-68
2022/10/08 05:09:12;;;;;;;33.08;18.60;;;8.50;99.90;;;;;;6233881;23;20080;-69
2022/10/08 05:11:38;;;;;;;31.23;18.70;;;8.60;99.90;;;;;;6236736;22;20012;-68
2022/10/08 05:14:04;;;;;;;20.02;13.07;;;8.60;99.90;;;;;;6234091;23;20453;-76
2022/10/08 05:16:30;;;;;;;33.92;12.80;;;8.70;99.90;;;;;;6235164;23;20019;-76
2022/10/08 05:18:55;;;;;;;21.92;11.30;;;8.80;99.90;;;;;;6234867;22;20789;-76
2022/10/08 05:21:25;;;;;;;39.78;12.43;;;8.80;99.90;;;;;;6234702;23;20019;-76
2022/10/08 05:23:55;;;;;;;14.43;11.07;;;8.80;99.90;;;;;;6233103;22;20261;-76
2022/10/08 05:26:24;;;;;;;22.92;11.35;;;8.80;99.90;;;;;;6234377;22;20004;-76
2022/10/08 05:28:55;;;;;;;13.30;7.80;;;8.80;99.90;;;;;;6232044;23;20012;-76
2022/10/08 05:31:21;;;;;;;17.58;7.60;;;8.90;99.90;;;;;;6228908;23;20778;-78
2022/10/08 05:33:48;;;;;;;40.95;6.93;;;8.90;99.90;;;;;;6231357;23;20405;-78
2022/10/08 05:36:25;;;;;;;13.95;6.97;;;8.80;99.90;;;;;;6233972;23;20020;-78
2022/10/08 05:38:51;;;;;;;12.68;7.70;;;8.80;99.90;;;;;;6230690;23;20004;-77
2022/10/08 05:41:23;;;;;;;14.80;7.57;;;8.80;99.90;;;;;;6233597;23;20074;-78
2022/10/08 05:43:49;;;;;;;13.65;6.97;;;8.80;99.90;;;;;;6235135;23;20239;-78
2022/10/08 05:46:16;;;;;;;16.15;7.38;;;8.80;99.90;;;;;;6230897;23;20016;-77
2022/10/08 05:48:42;;;;;;;10.55;6.70;;;8.80;99.90;;;;;;6234196;22;20012;-78
2022/10/08 05:51:16;;;;;;;10.25;7.47;;;8.80;99.90;;;;;;6235585;23;20023;-67
2022/10/08 05:53:45;;;;;;;18.17;7.30;;;8.90;99.90;;;;;;6231940;23;20008;-68
2022/10/08 05:56:13;;;;;;;12.75;7.20;;;8.90;99.90;;;;;;6232395;23;20852;-68
2022/10/08 05:58:40;;;;;;;9.77;7.43;;;8.90;99.90;;;;;;6232626;23;20004;-68
2022/10/08 06:01:11;;;;;;;21.88;12.40;;;9.00;99.90;;;;;;6232173;23;20004;-68
2022/10/08 06:03:37;;;;;;;12.57;10.20;;;9.10;99.90;;;;;;6232072;22;20028;-68
2022/10/08 06:06:05;;;;;;;11.30;10.13;;;9.30;99.90;;;;;;6232446;22;20066;-70
2022/10/08 06:08:31;;;;;;;20.20;14.35;;;9.40;99.90;;;;;;6231873;22;20398;-78
2022/10/08 06:10:57;;;;;;;15.00;9.90;;;9.60;99.90;;;;;;6232406;22;19996;-78
2022/10/08 06:13:23;;;;;;;27.05;9.75;;;9.50;99.90;;;;;;6234747;23;20066;-78
2022/10/08 06:16:01;;;;;;;9.95;8.90;;;9.50;99.90;;;;;;6232514;23;20008;-77
2022/10/08 06:18:29;;;;;;;12.65;8.57;;;9.60;99.90;;;;;;6231603;22;20449;-78
2022/10/08 06:20:55;;;;;;;9.15;8.23;;;9.70;99.90;;;;;;6233591;23;20008;-72
2022/10/08 06:23:22;;;;;;;11.15;9.85;;;9.80;99.90;;;;;;6231883;23;20012;-74
2022/10/08 06:25:48;;;;;;;9.65;8.40;;;10.00;99.90;;;;;;6234646;23;20058;-74
2022/10/08 06:28:14;;;;;;;20.13;11.98;;;10.10;99.90;;;;;;6231879;23;20095;-76
2022/10/08 06:30:41;;;;;;;13.18;11.75;;;10.20;99.90;;;;;;6228868;23;20091;-73
2022/10/08 06:33:07;;;;;;;16.27;14.57;;;10.30;99.90;;;;;;6232835;22;20108;-74
2022/10/08 06:35:33;;;;;;;19.05;17.00;;;10.40;99.90;;;;;;6234405;22;20069;-72
2022/10/08 06:37:59;;;;;;;13.98;12.50;;;10.50;99.90;;;;;;6202149;23;20022;-73
2022/10/08 06:40:25;;;;;;;14.73;13.23;;;10.50;99.90;;;;;;6174998;23;20008;-73
2022/10/08 06:42:51;;;;;;;16.15;14.65;;;10.70;99.90;;;;;;6204269;23;19997;-73
2022/10/08 06:45:16;;;;;;;16.45;14.85;;;10.90;99.90;;;;;;6203110;23;20008;-73
2022/10/08 06:47:42;;;;;;;13.93;12.38;;;11.10;99.90;;;;;;6204338;23;20009;-73
2022/10/08 06:50:08;;;;;;;15.23;13.15;;;11.30;99.90;;;;;;6203720;23;20353;-71
2022/10/08 06:52:34;;;;;;;14.43;12.40;;;11.50;99.90;;;;;;6201239;23;20084;-70
2022/10/08 06:55:00;;;;;;;11.90;10.70;;;11.70;99.90;;;;;;6176561;23;20373;-82
2022/10/08 06:57:25;;;;;;;11.73;10.32;;;11.90;99.90;;;;;;6202140;23;20009;-70
2022/10/08 06:59:53;;;;;;;10.70;8.98;;;12.10;99.90;;;;;;6203062;23;20004;-70
2022/10/08 07:02:19;;;;;;;17.38;9.40;;;12.30;99.90;;;;;;6199669;23;20763;-69
2022/10/08 07:04:45;;;;;;;9.15;8.10;;;12.60;99.90;;;;;;6203628;23;20000;-70
2022/10/08 07:07:10;;;;;;;12.60;7.97;;;12.70;99.90;;;;;;6202890;23;20012;-69
2022/10/08 07:09:36;;;;;;;9.75;7.63;;;12.90;99.90;;;;;;6202878;23;20072;-69
2022/10/08 07:12:02;;;;;;;9.32;7.13;;;13.10;99.90;;;;;;6199382;23;20004;-69
2022/10/08 07:14:28;;;;;;;8.63;6.80;;;13.30;99.90;;;;;;6200394;23;20008;-70
2022/10/08 07:16:53;;;;;;;7.68;6.97;;;13.50;99.90;;;;;;6201600;23;20075;-70
2022/10/08 07:19:19;;;;;;;9.52;7.22;;;13.70;99.90;;;;;;6202835;23;20012;-69
2022/10/08 07:21:44;;;;;;;7.57;6.88;;;13.80;99.90;;;;;;6202466;23;20203;-70
2022/10/08 07:24:10;;;;;;;9.95;7.53;;;14.00;99.90;;;;;;6202637;23;20092;-69
2022/10/08 07:26:36;;;;;;;8.40;7.50;;;14.30;99.90;;;;;;6201491;23;20016;-69
2022/10/08 07:29:06;;;;;;;8.88;6.90;;;14.50;99.90;;;;;;6200472;23;20096;-69
2022/10/08 07:31:34;;;;;;;7.78;6.97;;;14.70;99.90;;;;;;6196697;23;20025;-69
2022/10/08 07:34:03;;;;;;;14.85;8.60;;;14.80;99.90;;;;;;6201979;23;20319;-70
2022/10/08 07:36:29;;;;;;;8.23;7.43;;;15.00;99.90;;;;;;6211613;22;20095;-69
2022/10/08 07:38:59;;;;;;;9.30;7.07;;;15.00;99.90;;;;;;6232561;23;20080;-70
2022/10/08 07:41:26;;;;;;;9.15;7.43;;;15.10;99.90;;;;;;6231761;23;20244;-70
2022/10/08 07:43:54;;;;;;;8.98;7.03;;;15.20;99.90;;;;;;6233903;23;20310;-70
2022/10/08 07:46:20;;;;;;;8.52;7.72;;;15.40;99.90;;;;;;6230754;23;20567;-70
2022/10/08 07:48:46;;;;;;;10.15;8.77;;;15.40;99.90;;;;;;6230706;23;20100;-70
2022/10/08 07:51:14;;;;;;;11.32;8.32;;;15.40;99.90;;;;;;6232860;23;20066;-69
2022/10/08 07:53:40;;;;;;;9.52;8.52;;;15.40;99.90;;;;;;6232550;23;20012;-70
2022/10/08 07:56:08;;;;;;;10.23;8.38;;;15.40;99.90;;;;;;6227842;22;20088;-71
2022/10/08 07:58:33;;;;;;;10.93;8.25;;;15.50;99.90;;;;;;6231862;23;20013;-71
2022/10/08 08:01:02;;;;;;;9.38;8.45;;;15.60;99.90;;;;;;6229567;23;20035;-72
2022/10/08 08:03:28;;;;;;;10.27;8.50;;;15.60;99.90;;;;;;6229407;23;20015;-73
2022/10/08 08:05:59;;;;;;;9.20;7.50;;;15.60;99.90;;;;;;6230804;23;20022;-72
2022/10/08 08:08:25;;;;;;;11.15;8.38;;;15.60;99.90;;;;;;6231091;23;20012;-72
2022/10/08 08:10:59;;;;;;;8.18;7.38;;;15.90;99.90;;;;;;6231336;22;20079;-71
2022/10/08 08:13:26;;;;;;;8.43;7.70;;;16.10;99.90;;;;;;6225574;23;20421;-73
2022/10/08 08:15:59;;;;;;;9.65;7.70;;;16.20;99.90;;;;;;6225363;23;20004;-72
2022/10/08 08:18:29;;;;;;;9.65;7.35;;;16.30;99.90;;;;;;6230021;23;19996;-73
2022/10/08 08:21:08;;;;;;;7.90;6.72;;;16.40;99.90;;;;;;6228875;23;20012;-71
2022/10/08 08:23:37;;;;;;;7.53;6.82;;;16.50;99.90;;;;;;6228866;23;20012;-72
2022/10/08 08:26:09;;;;;;;8.45;7.55;;;16.60;99.90;;;;;;6229875;23;20715;-70
2022/10/08 08:28:34;;;;;;;8.30;7.43;;;16.70;99.90;;;;;;6231570;23;20253;-71
2022/10/08 08:31:14;;;;;;;9.10;7.00;;;16.80;99.90;;;;;;6227929;23;20383;-70
2022/10/08 08:33:40;;;;;;;8.57;7.28;;;16.90;99.90;;;;;;6232083;23;20012;-76
2022/10/08 08:36:07;;;;;;;8.75;7.35;;;17.00;99.90;;;;;;6230199;23;20453;-77
2022/10/08 08:38:37;;;;;;;22.23;10.10;;;17.00;99.90;;;;;;6233042;23;20012;-77
2022/10/08 08:41:19;;;;;;;11.27;7.10;;;17.00;99.90;;;;;;6228674;22;20619;-76
2022/10/08 08:43:45;;;;;;;;;;;17.00;99.90;;;;;;6231834;23;20012;-78
2022/10/08 08:46:15;;;;;;;8.90;7.45;;;17.00;99.90;;;;;;6232779;22;20245;-76
2022/10/08 08:48:44;;;;;;;8.23;6.95;;;17.00;99.90;;;;;;6230479;23;20012;-76
2022/10/08 08:51:10;;;;;;;7.03;6.28;;;17.10;99.90;;;;;;6231595;23;20470;-76
2022/10/08 08:53:36;;;;;;;8.70;7.13;;;17.20;99.90;;;;;;6232302;23;20075;-77
2022/10/08 08:56:05;;;;;;;8.13;7.03;;;17.30;99.90;;;;;;6233363;22;20028;-79
2022/10/08 08:58:41;;;;;;;9.40;6.65;;;17.40;99.90;;;;;;6231235;23;20087;-78
2022/10/08 09:01:12;;;;;;;8.70;6.53;;;17.40;99.90;;;;;;6230946;23;20583;-75
2022/10/08 09:03:51;;;;;;;11.40;7.28;;;17.50;99.90;;;;;;6232443;23;20429;-66
2022/10/08 09:06:21;;;;;;;10.73;7.68;;;17.50;99.90;;;;;;6233511;23;20026;-65
2022/10/08 09:08:53;;;;;;;8.65;7.60;;;17.50;99.90;;;;;;6232286;23;20008;-65
2022/10/08 09:11:20;;;;;;;9.40;6.63;;;17.50;99.90;;;;;;6231258;22;20001;-65
2022/10/08 09:13:56;;;;;;;7.53;6.68;;;17.50;99.90;;;;;;6235403;23;20004;-65
2022/10/08 09:16:25;;;;;;;9.55;7.13;;;17.60;99.90;;;;;;6233694;23;20032;-66
2022/10/08 09:18:51;;;;;;;8.18;6.88;;;17.60;99.90;;;;;;6230904;23;20091;-65
2022/10/08 09:21:18;;;;;;;8.18;7.28;;;17.70;99.90;;;;;;6232375;23;20221;-65
2022/10/08 09:23:45;;;;;;;14.65;7.15;;;17.70;99.90;;;;;;6229002;23;20008;-66
2022/10/08 09:26:33;;;;;;;9.57;7.45;;;17.70;99.90;;;;;;6232971;23;20004;-65
2022/10/08 09:29:00;;;;;;;8.48;6.47;;;17.80;99.90;;;;;;6232745;23;20000;-65
2022/10/08 09:31:38;;;;;;;8.00;6.72;;;17.90;99.90;;;;;;6232666;23;20460;-65
2022/10/08 09:34:09;;;;;;;7.20;6.50;;;17.90;99.90;;;;;;6234680;23;20066;-65
2022/10/08 09:36:42;;;;;;;8.37;6.70;;;18.00;99.90;;;;;;6233703;23;20467;-66
2022/10/08 09:39:36;;;;;;;6.22;5.63;;;17.90;99.90;;;;;;6235285;23;20253;-65
2022/10/08 09:42:18;;;;;;;6.72;6.07;;;18.00;99.90;;;;;;6231823;23;20388;-65
2022/10/08 09:44:45;;;;;;;6.88;6.18;;;18.10;99.90;;;;;;6234599;23;20035;-65
2022/10/08 09:47:13;;;;;;;7.82;5.78;;;18.10;99.90;;;;;;6235750;23;20019;-66
2022/10/08 09:49:39;;;;;;;8.05;5.25;;;18.20;99.90;;;;;;6235242;23;20065;-66
2022/10/08 09:52:22;;;;;;;15.48;9.38;;;18.30;99.90;;;;;;6236171;23;20341;-66
2022/10/08 09:54:57;;;;;;;7.15;6.45;;;18.50;99.90;;;;;;6230777;23;20032;-65
2022/10/08 09:57:23;;;;;;;7.55;5.93;;;18.50;99.90;;;;;;6230794;23;20015;-65
2022/10/08 09:59:56;;;;;;;6.57;5.47;;;18.50;99.90;;;;;;6231724;23;20009;-74
2022/10/08 10:02:32;;;;;;;6.40;5.65;;;18.50;99.90;;;;;;6235189;23;20004;-73
2022/10/08 10:05:00;;;;;;;8.05;5.13;;;18.60;99.90;;;;;;6235342;23;20018;-74
2022/10/08 10:07:43;;;;;;;6.07;5.22;;;18.60;99.90;;;;;;6234891;23;20345;-73
2022/10/08 10:10:21;;;;;;;7.15;5.93;;;18.70;99.90;;;;;;6236884;22;20074;-74
2022/10/08 10:12:53;;;;;;;5.88;5.28;;;18.80;99.90;;;;;;6229922;23;20023;-75
2022/10/08 10:15:38;;;;;;;8.95;6.28;;;18.80;99.90;;;;;;6232146;23;20434;-75
2022/10/08 10:18:12;;;;;;;6.70;5.10;;;19.00;99.90;;;;;;6236095;23;20008;-75
2022/10/08 10:20:57;;;;;;;6.65;5.28;;;19.10;99.90;;;;;;6234250;23;20004;-75
2022/10/08 10:23:50;;;;;;;5.60;4.93;;;19.30;99.90;;;;;;6235118;23;20202;-77
2022/10/08 10:26:21;;;;;;;5.00;4.47;;;19.30;99.90;;;;;;6235823;23;20008;-77
2022/10/08 10:29:17;;;;;;;4.53;4.00;;;19.40;99.90;;;;;;6229125;23;20630;-80
2022/10/08 10:32:04;;;;;;;5.65;4.20;;;19.40;99.90;;;;;;6232086;22;20529;-76
2022/10/08 10:34:35;;;;;;;5.25;3.97;;;19.50;99.90;;;;;;6235244;22;20003;-76
2022/10/08 10:37:06;;;;;;;6.75;3.90;;;19.60;99.90;;;;;;6235545;23;20020;-79
2022/10/08 10:39:54;;;;;;;10.50;4.28;;;19.70;99.90;;;;;;6235459;23;20004;-74
2022/10/08 10:42:28;;;;;;;7.15;3.80;;;19.70;99.90;;;;;;6230445;22;20016;-76
2022/10/08 10:45:07;;;;;;;7.00;4.15;;;19.80;99.90;;;;;;6228741;23;20000;-75
2022/10/08 10:47:32;;;;;;;4.50;4.10;;;19.80;99.90;;;;;;6227432;23;20012;-77
2022/10/08 10:50:00;;;;;;;6.95;3.83;;;19.90;99.90;;;;;;6231317;23;20000;-77
2022/10/08 10:52:37;;;;;;;5.32;4.20;;;19.90;99.90;;;;;;6230854;23;20437;-79
2022/10/08 10:55:24;;;;;;;5.85;4.00;;;19.90;99.90;;;;;;6227939;23;20007;-76
2022/10/08 10:58:18;;;;;;;11.32;5.22;;;20.00;99.90;;;;;;6228980;23;20200;-74
2022/10/08 11:01:16;;;;;;;6.25;4.30;;;20.00;99.90;;;;;;6230949;22;20018;-72
2022/10/08 11:03:57;;;;;;;4.90;4.40;;;20.10;99.90;;;;;;6234530;23;19999;-73
2022/10/08 11:06:44;;;;;;;4.28;3.78;;;20.00;99.90;;;;;;6233306;23;20038;-73
2022/10/08 11:09:34;;;;;;;4.68;3.58;;;20.10;99.90;;;;;;6233417;23;20015;-73
2022/10/08 11:12:09;;;;;;;6.57;3.35;;;20.20;99.90;;;;;;6234486;22;20000;-74
2022/10/08 11:14:43;;;;;;;6.32;3.38;;;20.20;99.90;;;;;;6236156;23;20031;-72
2022/10/08 11:17:33;;;;;;;4.82;3.20;;;20.10;99.90;;;;;;6234043;23;20011;-72
2022/10/08 11:20:12;;;;;;;5.75;3.40;;;20.20;99.90;;;;;;6234164;22;20775;-73
2022/10/08 11:22:48;;;;;;;5.45;3.08;;;20.30;99.90;;;;;;6234602;23;20011;-74
2022/10/08 11:25:27;;;;;;;4.22;3.75;;;20.20;99.90;;;;;;6234876;23;20611;-72
2022/10/08 11:28:15;;;;;;;3.28;2.95;;;20.30;99.90;;;;;;6234416;23;20067;-73
2022/10/08 11:31:00;;;;;;;3.42;3.13;;;20.30;99.90;;;;;;6233482;23;20004;-73
2022/10/08 11:33:26;;;;;;;5.90;2.70;;;20.40;99.90;;;;;;6234182;23;20134;-74
2022/10/08 11:36:22;;;;;;;6.13;3.65;;;20.40;99.90;;;;;;6236664;23;19997;-75
2022/10/08 11:38:58;;;;;;;8.05;3.97;;;20.40;99.90;;;;;;6234196;23;20141;-74
2022/10/08 11:41:58;;;;;;;3.63;3.10;;;20.40;99.90;;;;;;6232191;23;20054;-75
2022/10/08 11:44:25;;;;;;;5.22;3.20;;;20.50;99.90;;;;;;6234458;22;20397;-74
2022/10/08 11:46:51;;;;;;;4.40;2.88;;;20.60;99.90;;;;;;6233025;23;20083;-76
2022/10/08 11:49:19;;;;;;;3.65;2.67;;;20.70;99.90;;;;;;6234983;23;20024;-75
2022/10/08 11:51:46;;;;;;;2.80;2.50;;;20.70;99.90;;;;;;6233184;23;20457;-75
2022/10/08 11:54:24;;;;;;;8.30;3.72;;;20.70;99.90;;;;;;6234489;23;20397;-79
2022/10/08 11:57:08;;;;;;;13.85;3.38;;;20.70;99.90;;;;;;6229863;23;20015;-75
2022/10/08 11:59:44;;;;;;;5.07;2.72;;;20.70;99.90;;;;;;6230850;22;20015;-73
2022/10/08 12:02:30;;;;;;;3.70;3.03;;;20.70;99.90;;;;;;6231654;23;20035;-76
2022/10/08 12:05:16;;;;;;;4.20;2.90;;;20.60;99.90;;;;;;6227999;23;20008;-75
2022/10/08 12:07:49;;;;;;;3.67;3.03;;;20.50;99.90;;;;;;6231336;23;20349;-77
2022/10/08 12:10:18;;;;;;;3.13;2.78;;;20.50;99.90;;;;;;6233031;22;20015;-74
2022/10/08 12:12:49;;;;;;;4.72;2.72;;;20.50;99.90;;;;;;6227432;23;20004;-72
2022/10/08 12:15:24;;;;;;;5.55;2.83;;;20.40;99.90;;;;;;6231413;23;20011;-73
2022/10/08 12:18:09;;;;;;;5.97;2.80;;;20.30;99.90;;;;;;6223486;23;20459;-72
2022/10/08 12:20:37;;;;;;;5.35;3.03;;;20.30;99.90;;;;;;6183107;22;20015;-72
2022/10/08 12:23:34;;;;;;;5.40;3.30;;;20.30;99.90;;;;;;6229710;23;20699;-76
2022/10/08 12:26:00;;;;;;;5.15;2.75;;;20.30;99.90;;;;;;6230315;23;19999;-73
2022/10/08 12:28:28;;;;;;;6.30;3.15;;;20.30;99.90;;;;;;6230490;23;20019;-72
2022/10/08 12:30:57;;;;;;;3.10;2.70;;;20.30;99.90;;;;;;6227168;23;19996;-73
2022/10/08 12:33:24;;;;;;;4.47;3.10;;;20.30;99.90;;;;;;6232365;23;20012;-74
2022/10/08 12:36:21;;;;;;;6.60;2.88;;;20.20;99.90;;;;;;6231262;23;20004;-72
2022/10/08 12:39:06;;;;;;;5.18;2.92;;;20.20;99.90;;;;;;6233197;23;20012;-74
2022/10/08 12:41:50;;;;;;;4.35;2.92;;;20.20;99.90;;;;;;6232919;23;20008;-74
2022/10/08 12:44:33;;;;;;;15.10;4.97;;;20.20;99.90;;;;;;6234634;23;20365;-74
2022/10/08 12:47:33;;;;;;;4.90;2.95;;;20.20;99.90;;;;;;6230169;23;20027;-71
2022/10/08 12:50:15;;;;;;;7.10;2.60;;;20.20;99.90;;;;;;6232661;23;20111;-70
2022/10/08 12:52:40;;;;;;;;;;;20.20;99.90;;;;;;6231755;23;20010;-71
2022/10/08 12:55:17;;;;;;;8.75;3.03;;;20.20;99.90;;;;;;6231920;23;19904;-70
2022/10/08 12:57:45;;;;;;;5.13;3.42;;;20.20;99.90;;;;;;6231846;23;20000;-71
2022/10/08 13:00:17;;;;;;;5.05;2.83;;;20.30;99.90;;;;;;6232884;23;20004;-71
2022/10/08 13:02:43;;;;;;;4.20;3.13;;;20.20;99.90;;;;;;6231542;23;20004;-71
2022/10/08 13:05:31;;;;;;;4.75;3.80;;;20.20;99.90;;;;;;6231554;23;20015;-71
2022/10/08 13:07:57;;;;;;;4.97;3.33;;;20.20;99.90;;;;;;6228817;23;20066;-71
2022/10/08 13:10:27;;;;;;;7.05;3.92;;;20.30;99.90;;;;;;6233774;22;20090;-71
2022/10/08 13:13:22;;;;;;;3.88;3.20;;;20.40;99.90;;;;;;6230203;23;20031;-71